createdAt,value
2023-02-16T00:01:16.382Z,0.12
2023-02-16T00:03:44.555Z,0.17
2023-02-16T00:06:16.229Z,0.12
2023-02-16T00:08:45.080Z,0.01
2023-02-16T00:11:33.955Z,0.03
2023-02-16T00:14:02.636Z,0.04
2023-02-16T00:16:32.222Z,0.09
2023-02-16T00:19:00.598Z,0.13
2023-02-16T00:21:28.589Z,0.17
2023-02-16T00:23:56.789Z,0.16
2023-02-16T00:26:26.940Z,0.20
2023-02-16T00:28:56.118Z,0.22
2023-02-16T00:31:27.281Z,0.24
2023-02-16T00:33:58.150Z,0.23
2023-02-16T00:36:27.661Z,0.19
2023-02-16T00:38:55.722Z,0.15
2023-02-16T00:41:43.102Z,0.16
2023-02-16T00:44:15.633Z,0.11
2023-02-16T00:46:44.615Z,0.02
2023-02-16T00:49:16.133Z,-0.01
2023-02-16T00:51:44.222Z,-0.10
2023-02-16T00:54:12.726Z,-0.10
2023-02-16T00:56:41.757Z,-0.11
2023-02-16T00:59:13.713Z,-0.35
2023-02-16T01:01:41.923Z,-0.28
2023-02-16T01:04:12.888Z,-0.29
2023-02-16T01:07:02.100Z,-0.29
2023-02-16T01:09:47.842Z,-0.41
2023-02-16T01:12:17.148Z,-0.37
2023-02-16T01:14:46.635Z,-0.33
2023-02-16T01:17:14.693Z,-0.46
2023-02-16T01:19:43.273Z,-0.39
2023-02-16T01:22:13.105Z,-0.39
2023-02-16T01:24:41.178Z,-0.38
2023-02-16T01:27:11.372Z,-0.35
2023-02-16T01:29:39.538Z,-0.27
2023-02-16T01:32:07.588Z,-0.18
2023-02-16T01:34:37.254Z,-0.33
2023-02-16T01:37:05.701Z,-0.32
2023-02-16T01:39:35.485Z,-0.28
2023-02-16T01:42:10.534Z,-0.25
2023-02-16T01:44:41.080Z,-0.27
2023-02-16T01:47:16.112Z,-0.26
2023-02-16T01:49:44.214Z,-0.30
2023-02-16T01:52:15.259Z,-0.27
2023-02-16T01:54:48.628Z,-0.23
2023-02-16T01:57:24.214Z,-0.23
2023-02-16T02:00:06.546Z,-0.23
2023-02-16T02:02:42.949Z,-0.30
2023-02-16T02:05:36.229Z,-0.19
2023-02-16T02:08:22.890Z,-0.27
2023-02-16T02:10:56.060Z,-0.37
2023-02-16T02:13:29.004Z,-0.47
2023-02-16T02:15:59.539Z,-0.37
2023-02-16T02:18:27.592Z,-0.45
2023-02-16T02:21:27.339Z,-0.46
2023-02-16T02:24:10.035Z,-0.44
2023-02-16T02:26:56.005Z,-0.48
2023-02-16T02:29:31.716Z,-0.55
2023-02-16T02:32:04.792Z,-0.68
2023-02-16T02:34:44.616Z,-0.58
2023-02-16T02:37:18.985Z,-0.61
2023-02-16T02:40:04.058Z,-0.55
2023-02-16T02:42:34.541Z,-0.60
2023-02-16T02:45:08.383Z,-0.72
2023-02-16T02:47:40.604Z,-0.78
2023-02-16T02:50:28.011Z,-0.93
2023-02-16T02:52:58.072Z,-0.98
2023-02-16T02:55:40.812Z,-1.08
2023-02-16T02:58:26.692Z,-1.03
2023-02-16T03:00:57.329Z,-1.04
2023-02-16T03:03:27.534Z,-1.16
2023-02-16T03:05:58.375Z,-1.06
2023-02-16T03:08:28.073Z,-1.05
2023-02-16T03:11:17.122Z,-1.08
2023-02-16T03:13:47.283Z,-1.07
2023-02-16T03:16:21.395Z,-1.10
2023-02-16T03:19:07.021Z,-1.08
2023-02-16T03:21:52.977Z,-1.07
2023-02-16T03:24:41.117Z,-1.11
2023-02-16T03:27:27.684Z,-1.10
2023-02-16T03:29:56.986Z,-1.13
2023-02-16T03:32:26.625Z,-1.34
2023-02-16T03:34:54.603Z,-1.28
2023-02-16T03:37:22.758Z,-1.16
2023-02-16T03:40:08.605Z,-1.19
2023-02-16T03:42:36.832Z,-1.19
2023-02-16T03:45:04.963Z,-1.14
2023-02-16T03:47:34.322Z,-1.18
2023-02-16T03:50:04.794Z,-1.12
2023-02-16T03:52:32.746Z,-1.19
2023-02-16T03:55:00.895Z,-1.17
2023-02-16T03:57:28.924Z,-1.03
2023-02-16T03:59:59.227Z,-1.09
2023-02-16T04:02:28.516Z,-1.20
2023-02-16T04:04:58.318Z,-1.11
2023-02-16T04:07:26.451Z,-1.05
2023-02-16T04:09:54.474Z,-1.11
2023-02-16T04:12:36.663Z,-1.03
2023-02-16T04:15:05.322Z,-1.05
2023-02-16T04:17:33.679Z,-0.96
2023-02-16T04:20:03.744Z,-1.05
2023-02-16T04:22:31.787Z,-1.02
2023-02-16T04:24:59.946Z,-1.08
2023-02-16T04:27:28.190Z,-1.14
2023-02-16T04:29:56.649Z,-1.20
2023-02-16T04:32:24.704Z,-1.23
2023-02-16T04:34:52.956Z,-1.27
2023-02-16T04:37:22.339Z,-1.28
2023-02-16T04:39:50.602Z,-1.26
2023-02-16T04:42:18.532Z,-1.19
2023-02-16T04:44:46.748Z,-1.16
2023-02-16T04:47:14.998Z,-1.14
2023-02-16T04:49:43.237Z,-1.11
2023-02-16T04:52:14.230Z,-1.12
2023-02-16T04:54:48.353Z,-1.16
2023-02-16T04:57:21.353Z,-1.22
2023-02-16T04:59:49.384Z,-1.22
2023-02-16T05:02:17.585Z,-1.28
2023-02-16T05:04:45.646Z,-1.22
2023-02-16T05:07:14.125Z,-1.22
2023-02-16T05:09:44.053Z,-1.25
2023-02-16T05:12:30.153Z,-1.30
2023-02-16T05:14:58.208Z,-1.38
2023-02-16T05:17:26.904Z,-1.33
2023-02-16T05:19:55.974Z,-1.39
2023-02-16T05:22:24.324Z,-1.34
2023-02-16T05:24:53.796Z,-1.25
2023-02-16T05:27:22.657Z,-1.32
2023-02-16T05:29:51.018Z,-1.35
2023-02-16T05:32:21.316Z,-1.35
2023-02-16T05:34:52.378Z,-1.29
2023-02-16T05:37:20.412Z,-1.20
2023-02-16T05:39:48.414Z,-1.26
2023-02-16T05:42:17.741Z,-1.18
2023-02-16T05:44:45.794Z,-1.19
2023-02-16T05:47:13.828Z,-1.25
2023-02-16T05:49:41.966Z,-1.27
2023-02-16T05:52:10.056Z,-1.24
2023-02-16T05:54:38.266Z,-1.22
2023-02-16T05:57:06.308Z,-1.24
2023-02-16T05:59:35.846Z,-1.16
2023-02-16T06:02:03.869Z,-1.24
2023-02-16T06:04:32.533Z,-1.25
2023-02-16T06:07:00.695Z,-1.24
2023-02-16T06:09:28.938Z,-1.23
2023-02-16T06:11:57.086Z,-1.22
2023-02-16T06:14:25.306Z,-1.23
2023-02-16T06:16:56.474Z,-1.22
2023-02-16T06:19:24.618Z,-1.18
2023-02-16T06:21:55.266Z,-1.05
2023-02-16T06:24:23.517Z,-0.95
2023-02-16T06:26:51.407Z,-0.99
2023-02-16T06:29:19.452Z,-1.05
2023-02-16T06:31:47.593Z,-0.99
2023-02-16T06:34:17.276Z,-0.91
2023-02-16T06:36:45.446Z,-0.98
2023-02-16T06:39:13.555Z,-1.01
2023-02-16T06:41:41.864Z,-1.01
2023-02-16T06:44:12.213Z,-1.02
2023-02-16T06:46:40.889Z,-1.01
2023-02-16T06:49:09.171Z,-0.97
2023-02-16T06:51:38.432Z,-0.88
2023-02-16T06:54:06.582Z,-0.85
2023-02-16T06:56:36.798Z,-0.85
2023-02-16T06:59:05.926Z,-0.82
2023-02-16T07:01:33.952Z,-0.79
2023-02-16T07:04:02.308Z,-0.82
2023-02-16T07:06:32.235Z,-0.81
2023-02-16T07:09:02.457Z,-0.80
2023-02-16T07:11:30.755Z,-0.80
2023-02-16T07:13:58.695Z,-0.78
2023-02-16T07:16:26.864Z,-0.77
2023-02-16T07:18:54.989Z,-0.71
2023-02-16T07:21:23.267Z,-0.75
2023-02-16T07:23:51.263Z,-0.74
2023-02-16T07:26:21.626Z,-0.68
2023-02-16T07:28:49.803Z,-0.74
2023-02-16T07:31:18.381Z,-0.77
2023-02-16T07:33:46.531Z,-0.76
2023-02-16T07:36:15.212Z,-0.66
2023-02-16T07:38:43.330Z,-0.55
2023-02-16T07:41:12.432Z,-0.51
2023-02-16T07:43:43.045Z,-0.35
2023-02-16T07:46:11.360Z,-0.27
2023-02-16T07:48:40.209Z,-0.29
2023-02-16T07:51:10.443Z,-0.20
2023-02-16T07:53:43.213Z,-0.03
2023-02-16T07:56:19.562Z,0.18
2023-02-16T07:58:58.195Z,0.23
2023-02-16T08:01:29.890Z,0.20
2023-02-16T08:03:58.232Z,0.36
2023-02-16T08:06:30.176Z,0.09
2023-02-16T08:09:07.269Z,0.25
2023-02-16T08:11:42.126Z,0.32
2023-02-16T08:14:14.992Z,0.52
2023-02-16T08:16:53.544Z,0.40
2023-02-16T08:19:23.115Z,0.68
2023-02-16T08:21:54.612Z,0.86
2023-02-16T08:24:27.623Z,0.79
2023-02-16T08:26:56.337Z,0.72
2023-02-16T08:29:29.598Z,0.91
2023-02-16T08:32:12.734Z,0.90
2023-02-16T08:34:45.763Z,1.06
2023-02-16T08:37:17.956Z,0.99
2023-02-16T08:39:50.384Z,0.78
2023-02-16T08:42:23.672Z,0.84
2023-02-16T08:44:54.858Z,0.96
2023-02-16T08:47:24.241Z,0.90
2023-02-16T08:49:52.525Z,1.19
2023-02-16T08:52:21.151Z,1.39
2023-02-16T08:54:51.369Z,1.12
2023-02-16T08:57:19.725Z,1.26
2023-02-16T09:00:07.849Z,1.04
2023-02-16T09:02:37.566Z,1.23
2023-02-16T09:05:08.893Z,1.44
2023-02-16T09:07:37.506Z,1.61
2023-02-16T09:10:06.108Z,1.87
2023-02-16T09:12:35.416Z,1.62
2023-02-16T09:15:04.527Z,1.88
2023-02-16T09:17:32.803Z,2.09
2023-02-16T09:20:02.549Z,2.21
2023-02-16T09:22:30.546Z,2.43
2023-02-16T09:24:58.597Z,2.80
2023-02-16T09:27:27.449Z,2.85
2023-02-16T09:29:55.724Z,2.96
2023-02-16T09:32:24.547Z,3.03
2023-02-16T09:34:53.135Z,2.91
2023-02-16T09:37:22.751Z,2.80
2023-02-16T09:39:50.937Z,2.86
2023-02-16T09:42:26.704Z,2.89
2023-02-16T09:44:59.677Z,2.77
2023-02-16T09:47:30.966Z,2.92
2023-02-16T09:49:59.974Z,2.87
2023-02-16T09:52:34.346Z,2.81
2023-02-16T09:55:04.137Z,2.97
2023-02-16T09:57:41.311Z,2.99
2023-02-16T10:00:16.328Z,3.10
2023-02-16T10:02:50.101Z,3.35
2023-02-16T10:05:21.428Z,3.27
2023-02-16T10:07:58.820Z,3.53
2023-02-16T10:10:31.336Z,3.62
2023-02-16T10:13:03.223Z,3.81
2023-02-16T10:15:33.455Z,3.89
2023-02-16T10:18:04.397Z,4.08
2023-02-16T10:20:34.385Z,4.24
2023-02-16T10:23:09.376Z,4.27
2023-02-16T10:25:43.517Z,4.53
2023-02-16T10:28:16.790Z,4.44
2023-02-16T10:30:49.615Z,4.82
2023-02-16T10:33:22.428Z,5.23
2023-02-16T10:35:51.355Z,5.62
2023-02-16T10:38:26.825Z,6.03
2023-02-16T10:40:58.305Z,6.28
2023-02-16T10:43:40.712Z,6.23
2023-02-16T10:46:11.618Z,6.27
2023-02-16T10:48:39.731Z,6.53
2023-02-16T10:53:36.466Z,6.72
2023-02-16T10:56:28.604Z,6.70
2023-02-16T10:58:58.528Z,6.63
2023-02-16T11:01:32.698Z,7.02
2023-02-16T11:04:01.145Z,7.08
2023-02-16T11:06:29.864Z,7.63
2023-02-16T11:09:01.462Z,7.46
2023-02-16T11:11:32.500Z,7.56
2023-02-16T11:14:03.669Z,7.77
2023-02-16T11:16:33.147Z,7.63
2023-02-16T11:19:05.955Z,8.18
2023-02-16T11:21:46.597Z,8.26
2023-02-16T11:24:27.701Z,8.52
2023-02-16T11:27:05.026Z,8.87
2023-02-16T11:29:34.305Z,9.04
2023-02-16T11:32:09.422Z,9.03
2023-02-16T11:34:42.649Z,9.24
2023-02-16T11:37:17.939Z,9.39
2023-02-16T11:39:53.377Z,9.50
2023-02-16T11:42:30.147Z,9.69
2023-02-16T11:45:00.418Z,9.74
2023-02-16T11:47:31.663Z,9.79
2023-02-16T11:50:20.053Z,9.15
2023-02-16T11:52:50.337Z,9.42
2023-02-16T11:55:27.768Z,9.54
2023-02-16T11:57:57.054Z,9.58
2023-02-16T12:00:27.611Z,9.73
2023-02-16T12:03:21.848Z,9.73
2023-02-16T12:06:06.637Z,9.80
2023-02-16T12:08:56.184Z,10.09
2023-02-16T12:11:29.441Z,10.14
2023-02-16T12:14:13.084Z,10.29
2023-02-16T12:16:48.344Z,10.22
2023-02-16T12:19:31.270Z,10.46
2023-02-16T12:22:08.253Z,10.43
2023-02-16T12:24:48.178Z,10.41
2023-02-16T12:27:26.998Z,9.76
2023-02-16T12:30:01.840Z,9.63
2023-02-16T12:32:44.857Z,9.41
2023-02-16T12:35:37.734Z,9.38
2023-02-16T12:38:19.068Z,9.32
2023-02-16T12:40:58.093Z,9.38
2023-02-16T12:43:39.745Z,9.38
2023-02-16T12:46:16.942Z,9.56
2023-02-16T12:48:50.249Z,9.35
2023-02-16T12:51:22.448Z,9.24
2023-02-16T12:53:57.721Z,9.40
2023-02-16T12:56:29.699Z,9.43
2023-02-16T12:59:09.091Z,9.54
2023-02-16T13:01:37.849Z,9.61
2023-02-16T13:04:17.832Z,9.64
2023-02-16T13:06:56.520Z,9.68
2023-02-16T13:09:34.276Z,9.89
2023-02-16T13:12:08.630Z,9.92
2023-02-16T13:14:42.296Z,10.05
2023-02-16T13:17:15.268Z,9.88
2023-02-16T13:19:45.264Z,10.10
2023-02-16T13:22:32.710Z,10.38
2023-02-16T13:25:22.274Z,10.33
2023-02-16T13:27:58.913Z,10.46
2023-02-16T13:30:59.741Z,10.27
2023-02-16T13:33:45.629Z,10.47
2023-02-16T13:36:36.124Z,10.55
2023-02-16T13:39:35.130Z,10.59
2023-02-16T13:42:28.349Z,10.61
2023-02-16T13:44:59.440Z,10.50
2023-02-16T13:47:31.674Z,10.49
2023-02-16T13:50:01.585Z,10.16
2023-02-16T13:52:34.105Z,10.01
2023-02-16T13:55:05.324Z,9.90
2023-02-16T13:58:06.032Z,9.81
2023-02-16T14:00:38.129Z,9.89
2023-02-16T14:03:13.349Z,10.05
2023-02-16T14:05:43.380Z,10.18
2023-02-16T14:08:17.948Z,10.28
2023-02-16T14:11:04.789Z,10.45
2023-02-16T14:13:35.217Z,10.57
2023-02-16T14:16:09.585Z,10.61
2023-02-16T14:18:44.647Z,10.91
2023-02-16T14:21:27.580Z,11.21
2023-02-16T14:23:57.950Z,11.33
2023-02-16T14:26:28.754Z,11.45
2023-02-16T14:29:10.190Z,11.47
2023-02-16T14:31:45.523Z,11.51
2023-02-16T14:34:22.345Z,11.33
2023-02-16T14:37:10.511Z,11.37
2023-02-16T14:40:04.031Z,11.27
2023-02-16T14:42:34.605Z,11.04
2023-02-16T14:45:19.686Z,10.84
2023-02-16T14:47:59.052Z,10.89
2023-02-16T14:50:40.099Z,10.92
2023-02-16T14:53:40.618Z,10.86
2023-02-16T14:56:28.404Z,10.98
2023-02-16T14:59:03.070Z,10.90
2023-02-16T15:01:41.102Z,10.94
2023-02-16T15:04:11.042Z,10.86
2023-02-16T15:06:43.918Z,10.69
2023-02-16T15:09:18.458Z,10.58
2023-02-16T15:12:08.844Z,10.50
2023-02-16T15:14:47.869Z,10.46
2023-02-16T15:17:27.021Z,10.47
2023-02-16T15:19:59.138Z,10.50
2023-02-16T15:22:29.868Z,10.49
2023-02-16T15:25:00.795Z,10.50
2023-02-16T15:27:30.081Z,10.55
2023-02-16T15:30:21.157Z,10.55
2023-02-16T15:32:55.314Z,10.50
2023-02-16T15:35:27.026Z,10.52
2023-02-16T15:38:05.595Z,10.48
2023-02-16T15:40:35.377Z,10.43
2023-02-16T15:43:18.964Z,10.36
2023-02-16T15:45:52.545Z,10.30
2023-02-16T15:48:28.232Z,10.26
2023-02-16T15:51:01.289Z,10.22
2023-02-16T15:53:42.680Z,9.55
2023-02-16T15:56:38.157Z,9.12
2023-02-16T15:59:22.953Z,8.63
2023-02-16T16:01:58.938Z,8.26
2023-02-16T16:04:28.852Z,7.91
2023-02-16T16:06:58.124Z,7.63
2023-02-16T16:09:30.343Z,7.51
2023-02-16T16:12:00.987Z,7.22
2023-02-16T16:14:30.529Z,6.99
2023-02-16T16:16:59.355Z,6.80
2023-02-16T16:19:34.700Z,6.70
2023-02-16T16:22:04.620Z,6.79
2023-02-16T16:24:39.061Z,6.86
2023-02-16T16:27:09.481Z,6.62
2023-02-16T16:29:41.238Z,6.58
2023-02-16T16:32:21.144Z,6.54
2023-02-16T16:34:50.467Z,6.39
2023-02-16T16:37:26.522Z,6.27
2023-02-16T16:40:06.941Z,6.21
2023-02-16T16:42:39.301Z,6.12
2023-02-16T16:45:28.734Z,5.98
2023-02-16T16:48:01.941Z,5.90
2023-02-16T16:50:33.457Z,5.84
2023-02-16T16:53:01.683Z,5.86
2023-02-16T16:55:34.296Z,5.85
2023-02-16T16:58:06.083Z,5.87
2023-02-16T17:00:37.228Z,5.80
2023-02-16T17:03:07.726Z,5.79
2023-02-16T17:05:38.302Z,5.79
2023-02-16T17:08:06.796Z,5.79
2023-02-16T17:10:38.759Z,5.82
2023-02-16T17:13:07.863Z,5.85
2023-02-16T17:15:43.442Z,5.89
2023-02-16T17:18:16.262Z,5.92
2023-02-16T17:20:44.969Z,6.00
2023-02-16T17:23:14.850Z,5.99
2023-02-16T17:25:44.722Z,6.00
2023-02-16T17:28:13.620Z,6.05
2023-02-16T17:30:42.602Z,6.06
2023-02-16T17:33:12.075Z,6.13
2023-02-16T17:35:42.682Z,6.21
2023-02-16T17:38:13.488Z,6.23
2023-02-16T17:40:43.918Z,6.24
2023-02-16T17:43:14.891Z,6.26
2023-02-16T17:45:43.749Z,6.25
2023-02-16T17:48:17.183Z,6.30
2023-02-16T17:50:45.641Z,6.28
2023-02-16T17:53:15.270Z,6.30
2023-02-16T17:55:44.114Z,6.33
2023-02-16T17:58:16.338Z,6.37
2023-02-16T18:00:45.873Z,6.37
2023-02-16T18:03:14.131Z,6.39
2023-02-16T18:05:45.424Z,6.40
2023-02-16T18:08:13.953Z,6.41
2023-02-16T18:10:52.555Z,6.43
2023-02-16T18:13:22.530Z,6.44
2023-02-16T18:15:51.391Z,6.46
2023-02-16T18:18:20.293Z,6.49
2023-02-16T18:20:48.720Z,6.51
2023-02-16T18:23:17.850Z,6.56
2023-02-16T18:25:46.385Z,6.67
2023-02-16T18:28:18.244Z,6.81
2023-02-16T18:30:49.289Z,6.96
2023-02-16T18:33:18.735Z,6.99
2023-02-16T18:35:48.562Z,7.06
2023-02-16T18:38:17.105Z,7.17
2023-02-16T18:40:46.245Z,7.37
2023-02-16T18:43:15.387Z,7.47
2023-02-16T18:45:43.874Z,7.48
2023-02-16T18:48:14.098Z,7.59
2023-02-16T18:50:42.663Z,7.68
2023-02-16T18:53:10.971Z,7.82
2023-02-16T18:55:39.705Z,7.88
2023-02-16T18:58:08.703Z,7.94
2023-02-16T19:00:37.693Z,8.00
2023-02-16T19:03:06.483Z,8.05
2023-02-16T19:05:36.340Z,8.09
2023-02-16T19:08:04.648Z,8.31
2023-02-16T19:10:33.371Z,8.25
2023-02-16T19:13:02.276Z,8.25
2023-02-16T19:15:33.282Z,8.22
2023-02-16T19:18:01.531Z,8.20
2023-02-16T19:20:29.973Z,8.24
2023-02-16T19:22:59.634Z,8.26
2023-02-16T19:25:29.147Z,8.21
2023-02-16T19:27:57.764Z,8.29
2023-02-16T19:30:26.575Z,8.32
2023-02-16T19:32:56.756Z,8.30
2023-02-16T19:35:25.055Z,8.32
2023-02-16T19:37:53.651Z,8.36
2023-02-16T19:40:24.004Z,8.29
2023-02-16T19:42:52.948Z,8.32
2023-02-16T19:45:21.508Z,8.35
2023-02-16T19:47:51.872Z,8.32
2023-02-16T19:50:20.702Z,8.35
2023-02-16T19:52:48.873Z,8.39
2023-02-16T19:55:18.444Z,8.39
2023-02-16T19:57:48.165Z,8.44
2023-02-16T20:00:16.396Z,8.45
2023-02-16T20:02:45.057Z,8.52
2023-02-16T20:05:13.666Z,8.49
2023-02-16T20:07:41.875Z,8.52
2023-02-16T20:10:10.472Z,8.61
2023-02-16T20:12:40.374Z,8.60
2023-02-16T20:15:14.180Z,8.63
2023-02-16T20:17:45.274Z,8.65
2023-02-16T20:20:15.208Z,8.62
2023-02-16T20:22:43.634Z,8.60
2023-02-16T20:25:12.604Z,8.65
2023-02-16T20:27:41.232Z,8.69
2023-02-16T20:30:17.622Z,8.63
2023-02-16T20:32:47.116Z,8.67
2023-02-16T20:35:16.153Z,8.66
2023-02-16T20:37:44.722Z,8.64
2023-02-16T20:40:13.935Z,8.68
2023-02-16T20:42:42.183Z,8.62
2023-02-16T20:45:12.179Z,8.65
2023-02-16T20:47:40.729Z,8.60
2023-02-16T20:50:13.366Z,8.68
2023-02-16T20:52:42.172Z,8.72
2023-02-16T20:55:11.833Z,8.86
2023-02-16T20:57:42.876Z,8.93
2023-02-16T21:00:18.569Z,9.02
2023-02-16T21:02:47.151Z,8.96
2023-02-16T21:05:16.173Z,8.94
2023-02-16T21:07:44.458Z,8.96
2023-02-16T21:10:15.471Z,9.02
2023-02-16T21:12:43.766Z,9.08
2023-02-16T21:15:13.405Z,9.05
2023-02-16T21:17:41.767Z,9.06
2023-02-16T21:20:11.202Z,9.06
2023-02-16T21:22:39.590Z,9.03
2023-02-16T21:25:08.880Z,9.02
2023-02-16T21:27:37.427Z,9.06
2023-02-16T21:30:07.002Z,9.16
2023-02-16T21:32:37.085Z,9.09
2023-02-16T21:35:06.762Z,9.08
2023-02-16T21:37:38.481Z,9.07
2023-02-16T21:40:25.600Z,9.28
2023-02-16T21:42:54.062Z,9.23
2023-02-16T21:45:22.549Z,9.18
2023-02-16T21:48:09.975Z,9.25
2023-02-16T21:50:40.631Z,9.25
2023-02-16T21:53:10.381Z,9.30
2023-02-16T21:55:56.608Z,9.33
2023-02-16T21:58:26.700Z,9.28
2023-02-16T22:00:56.419Z,9.24
2023-02-16T22:03:26.189Z,9.29
2023-02-16T22:05:54.395Z,9.30
2023-02-16T22:08:22.542Z,9.25
2023-02-16T22:10:50.825Z,9.47
2023-02-16T22:13:19.056Z,9.48
2023-02-16T22:15:48.872Z,9.41
2023-02-16T22:18:17.083Z,9.43
2023-02-16T22:20:46.684Z,9.41
2023-02-16T22:23:14.911Z,9.35
2023-02-16T22:25:43.323Z,9.27
2023-02-16T22:28:11.970Z,9.35
2023-02-16T22:30:40.329Z,9.32
2023-02-16T22:33:09.807Z,9.25
2023-02-16T22:35:38.053Z,9.18
2023-02-16T22:38:07.624Z,9.18
2023-02-16T22:40:35.821Z,9.13
2023-02-16T22:43:04.012Z,9.32
2023-02-16T22:45:32.465Z,9.18
2023-02-16T22:48:00.625Z,9.16
2023-02-16T22:50:28.857Z,9.14
2023-02-16T22:52:57.362Z,9.07
2023-02-16T22:55:27.244Z,9.15
2023-02-16T22:57:55.647Z,8.97
2023-02-16T23:00:27.264Z,8.96
2023-02-16T23:02:55.606Z,8.91
2023-02-16T23:05:23.906Z,8.97
2023-02-16T23:07:52.170Z,8.89
2023-02-16T23:10:20.328Z,8.94
2023-02-16T23:12:49.925Z,8.92
2023-02-16T23:15:18.192Z,8.87
2023-02-16T23:17:46.686Z,8.89
2023-02-16T23:20:14.911Z,8.85
2023-02-16T23:22:43.322Z,8.85
2023-02-16T23:25:29.138Z,8.92
2023-02-16T23:27:59.078Z,8.88
2023-02-16T23:30:27.900Z,8.97
2023-02-16T23:32:56.356Z,8.95
2023-02-16T23:35:24.736Z,8.87
2023-02-16T23:37:53.288Z,8.85
2023-02-16T23:40:21.778Z,8.79
2023-02-16T23:42:50.248Z,8.90
2023-02-16T23:45:21.402Z,8.81
2023-02-16T23:47:49.557Z,8.86
2023-02-16T23:50:18.113Z,8.83
2023-02-16T23:52:46.509Z,8.77
2023-02-16T23:55:15.093Z,8.80
2023-02-16T23:57:43.471Z,8.84
